KAPG/APG METAR and TAF weather

Enter ICAO airport designator
Station Type Date Time Source
KAPG METAR 2022/05/25 20:58 UTC NOAA

KAPG 252058Z 12009KT 7SM BKN070 22/09 A3028 RMK AO2A LAST SLP257 T02190086 56011 $


Station Type Date Time Source
KAPG Decoded METAR 2022/05/25 20:58 UTC NOAA

Phillips Army Air Field / Aberdeen, MD, United States (KAPG) 39-28N 076-10W
May 25, 2022 - 04:58 PM EDT / 2022.05.25 2058 UTC
Wind: from the ESE (120 degrees) at 10 MPH (9 KT):0
Visibility: 7 mile(s):0
Sky conditions: mostly cloudy
Temperature: 71.4 F (21.9 C)
Dew Point: 47.5 F (8.6 C)
Relative Humidity: 42%
Pressure (altimeter): 30.28 in. Hg (1025 hPa)
Pressure tendency: 0.03 inches (1.1 hPa) lower than three hours ago
ob: KAPG 252058Z 12009KT 7SM BKN070 22/09 A3028 RMK AO2A LAST SLP257 T02190086 56011
cycle: 21

Station Type Date Time Source
KAPG TAF UTC NOAA

Error!

Example: see airport list